Time;durP1;ratioP1;P1;durP2;ratioP2;P2;SDS_P1;SDS_P2;PMS_P1;PMS_P2;Temp;Humidity;BMP_temperature;BMP_pressure;BME280_temperature;BME280_humidity;BME280_pressure;Samples;Min_cycle;Max_cycle;Signal;HPM_P1;HPM_P2
2021/09/18 00:02:06;;;;;;;;;;;15.30;99.90;;;;;;5074825;28;20342;-81
2021/09/18 00:04:33;;;;;;;;;;;15.30;99.90;;;;;;5076218;28;19924;-81
2021/09/18 00:07:00;;;;;;;;;;;15.40;99.90;;;;;;5078919;28;20423;-80
2021/09/18 00:09:27;;;;;;;;;;;15.40;99.90;;;;;;5078825;28;19974;-81
2021/09/18 00:11:54;;;;;;;;;;;15.40;99.90;;;;;;5078681;28;19932;-81
2021/09/18 00:14:21;;;;;;;;;;;15.40;99.90;;;;;;5078729;28;19970;-81
2021/09/18 00:16:49;;;;;;;;;;;15.40;99.90;;;;;;5078779;28;19924;-81
2021/09/18 00:19:17;;;;;;;;;;;15.40;99.90;;;;;;5078638;28;20006;-80
2021/09/18 00:24:26;;;;;;;;;;;15.40;99.90;;;;;;5078431;28;19932;-80
2021/09/18 00:26:54;;;;;;;;;;;15.40;99.90;;;;;;5078625;28;19925;-81
2021/09/18 00:29:23;;;;;;;;;;;15.40;99.90;;;;;;5078482;28;19958;-80
2021/09/18 00:31:50;;;;;;;;;;;15.40;99.90;;;;;;5078357;28;19924;-81
2021/09/18 00:34:23;;;;;;;;;;;15.40;99.90;;;;;;5078316;28;20015;-81
2021/09/18 00:36:52;;;;;;;;;;;15.40;99.90;;;;;;5077964;28;19925;-81
2021/09/18 00:39:20;;;;;;;;;;;15.50;99.90;;;;;;5078164;28;19932;-81
2021/09/18 00:41:48;;;;;;;;;;;15.50;99.90;;;;;;5078300;28;20268;-81
2021/09/18 00:44:17;;;;;;;;;;;15.40;99.90;;;;;;5078204;28;19989;-81
2021/09/18 00:46:47;;;;;;;;;;;15.40;99.90;;;;;;5078110;28;19935;-81
2021/09/18 00:49:17;;;;;;;;;;;15.40;99.90;;;;;;5078098;28;19928;-81
2021/09/18 00:51:48;;;;;;;;;;;15.40;99.90;;;;;;5078213;28;20353;-81
2021/09/18 00:54:17;;;;;;;;;;;15.50;99.90;;;;;;5078088;28;20336;-79
2021/09/18 00:56:45;;;;;;;;;;;15.50;99.90;;;;;;5078185;28;20401;-81
2021/09/18 00:59:13;;;;;;;;;;;15.50;99.90;;;;;;5077543;28;20324;-78
2021/09/18 01:01:41;;;;;;;;;;;15.40;99.90;;;;;;5077785;28;20304;-79
2021/09/18 01:04:09;;;;;;;;;;;15.50;99.90;;;;;;5077689;28;20046;-80
2021/09/18 01:06:37;;;;;;;;;;;15.50;99.90;;;;;;5077675;28;20012;-80
2021/09/18 01:09:06;;;;;;;;;;;15.50;99.90;;;;;;5077675;28;20012;-78
2021/09/18 01:11:33;;;;;;;;;;;15.50;99.90;;;;;;5077758;28;19990;-80
2021/09/18 01:14:00;;;;;;;;;;;15.50;99.90;;;;;;5077624;28;20011;-79
2021/09/18 01:16:26;;;;;;;;;;;15.50;99.90;;;;;;5076549;28;20011;-81
2021/09/18 01:18:55;;;;;;;;;;;16.10;99.90;;;;;;5076931;28;20015;-80
2021/09/18 01:21:23;;;;;;;;;;;15.50;99.90;;;;;;5077486;28;19967;-81
2021/09/18 01:23:52;;;;;;;;;;;15.50;99.90;;;;;;5077364;28;20396;-80
2021/09/18 01:26:29;;;;;;;;;;;15.50;99.90;;;;;;5077782;28;20023;-80
2021/09/18 01:28:57;;;;;;;;;;;15.50;99.90;;;;;;5077645;28;19978;-82
2021/09/18 01:31:25;;;;;;;;;;;15.50;99.90;;;;;;5077557;28;20372;-81
2021/09/18 01:33:52;;;;;;;;;;;15.50;99.90;;;;;;5077529;28;19987;-80
2021/09/18 01:36:19;;;;;;;;;;;15.50;99.90;;;;;;5077183;28;20024;-81
2021/09/18 01:38:47;;;;;;;;;;;15.50;99.90;;;;;;5077032;28;20305;-81
2021/09/18 01:41:15;;;;;;;;;;;15.50;99.90;;;;;;5077197;28;19943;-81
2021/09/18 01:43:42;;;;;;;;;;;15.50;99.90;;;;;;5076887;28;20027;-81
2021/09/18 01:46:09;;;;;;;;;;;15.50;99.90;;;;;;5076517;28;19959;-81
2021/09/18 01:48:37;;;;;;;;;;;15.50;99.90;;;;;;5076970;28;19991;-82
2021/09/18 01:51:09;;;;;;;;;;;15.50;99.90;;;;;;5076906;28;19991;-82
2021/09/18 01:53:36;;;;;;;;;;;15.50;99.90;;;;;;5076824;28;20272;-82
2021/09/18 01:56:03;;;;;;;;;;;15.50;99.90;;;;;;5076910;28;20015;-83
2021/09/18 01:58:31;;;;;;;;;;;15.50;99.90;;;;;;5076846;28;19925;-83
2021/09/18 02:01:00;;;;;;;;;;;15.50;99.90;;;;;;5076570;28;19982;-83
2021/09/18 02:03:27;;;;;;;;;;;15.50;99.90;;;;;;5076773;28;19932;-82
2021/09/18 02:05:54;;;;;;;;;;;15.50;99.90;;;;;;5076536;28;19978;-82
2021/09/18 02:08:21;;;;;;;;;;;15.50;99.90;;;;;;5076528;28;19987;-83
2021/09/18 02:10:48;;;;;;;;;;;15.50;99.90;;;;;;5076927;28;19972;-82
2021/09/18 02:13:16;;;;;;;;;;;15.50;99.90;;;;;;5076606;28;20003;-82
2021/09/18 02:15:46;;;;;;;;;;;15.50;99.90;;;;;;5076581;28;19968;-82
2021/09/18 02:18:14;;;;;;;;;;;15.50;99.90;;;;;;5076453;28;19980;-83
2021/09/18 02:20:42;;;;;;;;;;;15.50;99.90;;;;;;5076390;28;19964;-82
2021/09/18 02:23:11;;;;;;;;;;;15.50;99.90;;;;;;5076350;28;20301;-83
2021/09/18 02:25:42;;;;;;;;;;;15.50;99.90;;;;;;5076063;28;20023;-82
2021/09/18 02:28:10;;;;;;;;;;;15.50;99.90;;;;;;5076151;28;19931;-83
2021/09/18 02:30:39;;;;;;;;;;;15.50;99.90;;;;;;5076242;28;19975;-82
2021/09/18 02:33:08;;;;;;;;;;;15.40;99.90;;;;;;5076133;28;19975;-82
2021/09/18 02:35:36;;;;;;;;;;;15.50;99.90;;;;;;5075958;28;19924;-83
2021/09/18 02:38:04;;;;;;;;;;;15.50;99.90;;;;;;5075915;28;20011;-83
2021/09/18 02:40:31;;;;;;;;;;;15.50;99.90;;;;;;5075979;28;19986;-82
2021/09/18 02:42:59;;;;;;;;;;;15.40;99.90;;;;;;5075181;28;20416;-82
2021/09/18 02:45:25;;;;;;;;;;;15.40;99.90;;;;;;5075829;28;20011;-82
2021/09/18 02:47:52;;;;;;;;;;;15.40;99.90;;;;;;5075819;28;20003;-82
2021/09/18 02:50:21;;;;;;;;;;;15.40;99.90;;;;;;5075940;28;19982;-83
2021/09/18 02:52:48;;;;;;;;;;;16.60;99.90;;;;;;5076012;28;20007;-83
2021/09/18 02:55:15;;;;;;;;;;;15.40;99.90;;;;;;5075599;28;20023;-83
2021/09/18 02:57:42;;;;;;;;;;;15.40;99.90;;;;;;5075630;28;20388;-83
2021/09/18 03:00:09;;;;;;;;;;;15.40;99.90;;;;;;5075385;28;19964;-82
2021/09/18 03:02:36;;;;;;;;;;;15.40;99.90;;;;;;5075554;28;19979;-83
2021/09/18 03:05:03;;;;;;;;;;;15.40;99.90;;;;;;5075446;28;19986;-83
2021/09/18 03:07:31;;;;;;;;;;;15.40;99.90;;;;;;5075456;28;20384;-83
2021/09/18 03:09:58;;;;;;;;;;;15.40;99.90;;;;;;5075549;28;20050;-83
2021/09/18 03:12:25;;;;;;;;;;;15.40;99.90;;;;;;5075475;28;19964;-83
2021/09/18 03:14:52;;;;;;;;;;;15.40;99.90;;;;;;5075382;28;19975;-83
2021/09/18 03:17:19;;;;;;;;;;;15.30;99.90;;;;;;5075849;28;20019;-82
2021/09/18 03:19:46;;;;;;;;;;;15.40;99.90;;;;;;5075462;28;19986;-82
2021/09/18 03:22:13;;;;;;;;;;;15.40;99.90;;;;;;5075274;28;20020;-82
2021/09/18 03:24:41;;;;;;;;;;;15.40;99.90;;;;;;5075172;28;19928;-83
2021/09/18 03:27:08;;;;;;;;;;;15.40;99.90;;;;;;5075121;28;20415;-83
2021/09/18 03:29:35;;;;;;;;;;;15.30;99.90;;;;;;5075308;28;20357;-83
2021/09/18 03:32:04;;;;;;;;;;;15.40;99.90;;;;;;5075153;28;19924;-83
2021/09/18 03:34:30;;;;;;;;;;;15.30;99.90;;;;;;5075314;28;19932;-83
2021/09/18 03:36:57;;;;;;;;;;;15.40;99.90;;;;;;5075088;28;19970;-83
2021/09/18 03:39:24;;;;;;;;;;;15.30;99.90;;;;;;5074806;28;20015;-83
2021/09/18 03:41:53;;;;;;;;;;;15.40;99.90;;;;;;5075049;28;20023;-83
2021/09/18 03:44:20;;;;;;;;;;;15.30;99.90;;;;;;5075184;28;19998;-82
2021/09/18 03:46:46;;;;;;;;;;;15.40;99.90;;;;;;5075010;28;19964;-83
2021/09/18 03:49:13;;;;;;;;;;;15.40;99.90;;;;;;5074957;28;20129;-83
2021/09/18 03:51:40;;;;;;;;;;;15.30;99.90;;;;;;5075042;28;20392;-82
2021/09/18 03:54:07;;;;;;;;;;;15.40;99.90;;;;;;5075140;28;19971;-82
2021/09/18 03:56:34;;;;;;;;;;;15.30;99.90;;;;;;5074937;28;19979;-83
2021/09/18 03:59:02;;;;;;;;;;;15.30;99.90;;;;;;5074731;28;19968;-82
2021/09/18 04:01:29;;;;;;;;;;;15.30;99.90;;;;;;5074791;28;19978;-83
2021/09/18 04:03:56;;;;;;;;;;;15.30;99.90;;;;;;5074804;28;19963;-83
2021/09/18 04:06:23;;;;;;;;;;;15.30;99.90;;;;;;5074838;28;19925;-83
2021/09/18 04:08:50;;;;;;;;;;;15.30;99.90;;;;;;5074761;28;20400;-82
2021/09/18 04:11:17;;;;;;;;;;;15.30;99.90;;;;;;5074730;28;19972;-82
2021/09/18 04:13:44;;;;;;;;;;;15.30;99.90;;;;;;5074878;28;20329;-83
2021/09/18 04:16:12;;;;;;;;;;;15.30;99.90;;;;;;5074768;28;20014;-84
2021/09/18 04:18:39;;;;;;;;;;;15.30;99.90;;;;;;5074598;28;19968;-83
2021/09/18 04:21:06;;;;;;;;;;;15.30;99.90;;;;;;5074577;28;19989;-83
2021/09/18 04:23:33;;;;;;;;;;;15.30;99.90;;;;;;5074673;28;20417;-83
2021/09/18 04:26:00;;;;;;;;;;;15.30;99.90;;;;;;5074834;28;19924;-81
2021/09/18 04:28:27;;;;;;;;;;;15.30;99.90;;;;;;5074517;28;19971;-81
2021/09/18 04:30:54;;;;;;;;;;;15.30;99.90;;;;;;5074795;28;19974;-83
2021/09/18 04:33:22;;;;;;;;;;;15.30;99.90;;;;;;5074472;28;20400;-82
2021/09/18 04:35:49;;;;;;;;;;;15.30;99.90;;;;;;5074726;28;19982;-83
2021/09/18 04:38:16;;;;;;;;;;;15.30;99.90;;;;;;5074557;28;19971;-81
2021/09/18 04:40:43;;;;;;;;;;;15.30;99.90;;;;;;5074593;28;19975;-83
2021/09/18 04:43:10;;;;;;;;;;;15.30;99.90;;;;;;5074485;28;19976;-83
2021/09/18 04:45:37;;;;;;;;;;;15.20;99.90;;;;;;5074366;28;19968;-83
2021/09/18 04:48:04;;;;;;;;;;;15.30;99.90;;;;;;5074507;28;19972;-81
2021/09/18 04:50:32;;;;;;;;;;;15.20;99.90;;;;;;5074536;28;19971;-82
2021/09/18 04:52:59;;;;;;;;;;;15.20;99.90;;;;;;5077966;28;19979;-83
2021/09/18 04:55:26;;;;;;;;;;;15.20;99.90;;;;;;5078200;28;19971;-83
2021/09/18 04:57:53;;;;;;;;;;;15.30;99.90;;;;;;5077817;28;19967;-83
2021/09/18 05:00:20;;;;;;;;;;;15.20;99.90;;;;;;5077798;28;19975;-83
2021/09/18 05:02:47;;;;;;;;;;;15.20;99.90;;;;;;5078066;28;19931;-83
2021/09/18 05:05:13;;;;;;;;;;;15.20;99.90;;;;;;5077667;28;20027;-82
2021/09/18 05:07:42;;;;;;;;;;;15.30;99.90;;;;;;5077820;28;20023;-83
2021/09/18 05:10:09;;;;;;;;;;;15.20;99.90;;;;;;5077948;28;19951;-82
2021/09/18 05:12:36;;;;;;;;;;;15.20;99.90;;;;;;5077605;28;20019;-82
2021/09/18 05:15:03;;;;;;;;;;;15.20;99.90;;;;;;5077786;28;20014;-83
2021/09/18 05:17:30;;;;;;;;;;;15.20;99.90;;;;;;5077562;28;19968;-83
2021/09/18 05:19:57;;;;;;;;;;;15.20;99.90;;;;;;5077693;28;19963;-83
2021/09/18 05:22:24;;;;;;;;;;;15.20;99.90;;;;;;5077460;28;20007;-81
2021/09/18 05:24:52;;;;;;;;;;;15.10;99.90;;;;;;5077453;28;20011;-83
2021/09/18 05:27:19;;;;;;;;;;;15.10;99.90;;;;;;5077431;28;19964;-81
2021/09/18 05:29:46;;;;;;;;;;;15.10;99.90;;;;;;5077581;28;19978;-82
2021/09/18 05:32:13;;;;;;;;;;;15.10;99.90;;;;;;5077226;28;20357;-81
2021/09/18 05:34:40;;;;;;;;;;;15.10;99.90;;;;;;5077353;28;20035;-83
2021/09/18 05:37:07;;;;;;;;;;;15.10;99.90;;;;;;5077194;28;20019;-83
2021/09/18 05:39:33;;;;;;;;;;;15.00;99.90;;;;;;5077295;28;20003;-82
2021/09/18 05:42:02;;;;;;;;;;;15.00;99.90;;;;;;5077062;28;19976;-83
2021/09/18 05:44:29;;;;;;;;;;;15.00;99.90;;;;;;5077099;28;19972;-84
2021/09/18 05:46:56;;;;;;;;;;;15.00;99.90;;;;;;5076934;28;19928;-84
2021/09/18 05:49:23;;;;;;;;;;;15.00;99.90;;;;;;5077058;28;20365;-84
2021/09/18 05:51:49;;;;;;;;;;;15.00;99.90;;;;;;5077054;28;19964;-83
2021/09/18 05:54:16;;;;;;;;;;;14.90;99.90;;;;;;5076870;28;19994;-84
2021/09/18 05:56:43;;;;;;;;;;;14.90;99.90;;;;;;5076854;28;19968;-84
2021/09/18 05:59:12;;;;;;;;;;;14.90;99.90;;;;;;5076833;28;19994;-83
2021/09/18 06:01:38;;;;;;;;;;;14.90;99.90;;;;;;5076471;28;19968;-83
2021/09/18 06:04:05;;;;;;;;;;;14.90;99.90;;;;;;5076703;28;19986;-84
2021/09/18 06:06:32;;;;;;;;;;;14.90;99.90;;;;;;5076633;28;20031;-84
2021/09/18 06:08:59;;;;;;;;;;;14.90;99.90;;;;;;5076437;28;20053;-84
2021/09/18 06:11:26;;;;;;;;;;;14.90;99.90;;;;;;5076620;28;20024;-83
2021/09/18 06:13:53;;;;;;;;;;;14.80;99.90;;;;;;5076682;28;20008;-84
2021/09/18 06:16:22;;;;;;;;;;;14.80;99.90;;;;;;5076388;28;19960;-84
2021/09/18 06:18:49;;;;;;;;;;;14.80;99.90;;;;;;5076451;28;20341;-83
2021/09/18 06:21:16;;;;;;;;;;;14.80;99.90;;;;;;5076350;28;19929;-83
2021/09/18 06:23:43;;;;;;;;;;;14.80;99.90;;;;;;5076181;28;20019;-83
2021/09/18 06:26:09;;;;;;;;;;;14.70;99.90;;;;;;5076167;28;20633;-84
2021/09/18 06:28:36;;;;;;;;;;;14.80;99.90;;;;;;5076190;28;19983;-77
2021/09/18 06:31:03;;;;;;;;;;;14.80;99.90;;;;;;5076134;28;20376;-76
2021/09/18 06:33:32;;;;;;;;;;;14.80;99.90;;;;;;5076141;28;19964;-77
2021/09/18 06:36:00;;;;;;;;;;;14.80;99.90;;;;;;5075969;28;20306;-77
2021/09/18 06:38:26;;;;;;;;;;;14.80;99.90;;;;;;5075998;28;20277;-78
2021/09/18 06:40:58;;;;;;;;;;;14.90;99.90;;;;;;5076286;28;19968;-78
2021/09/18 06:43:25;;;;;;;;;;;14.80;99.90;;;;;;5075853;28;19933;-77
2021/09/18 06:45:52;;;;;;;;;;;14.90;99.90;;;;;;5075819;28;20388;-77
2021/09/18 06:48:19;;;;;;;;;;;14.80;99.90;;;;;;5075915;28;20020;-78
2021/09/18 06:50:47;;;;;;;;;;;14.80;99.90;;;;;;5075792;28;19928;-78
2021/09/18 06:53:14;;;;;;;;;;;14.80;99.90;;;;;;5075900;28;19998;-77
2021/09/18 06:55:41;;;;;;;;;;;14.80;99.90;;;;;;5075594;28;19975;-77
2021/09/18 06:58:08;;;;;;;;;;;14.70;99.90;;;;;;5075654;28;20408;-78
2021/09/18 07:00:35;;;;;;;;;;;14.70;99.90;;;;;;5075528;28;20345;-79
2021/09/18 07:03:01;;;;;;;;;;;14.70;99.90;;;;;;5075623;28;19978;-77
2021/09/18 07:05:28;;;;;;;;;;;14.70;99.90;;;;;;5075345;28;20023;-77
2021/09/18 07:07:57;;;;;;;;;;;14.80;99.90;;;;;;5075662;28;20035;-78
2021/09/18 07:10:24;;;;;;;;;;;14.80;99.90;;;;;;5075636;28;20028;-78
2021/09/18 07:12:51;;;;;;;;;;;14.80;99.90;;;;;;5075472;28;19924;-78
2021/09/18 07:15:17;;;;;;;;;;;14.80;99.90;;;;;;5074829;28;19971;-78
2021/09/18 07:17:44;;;;;;;;;;;14.80;99.90;;;;;;5075282;28;19974;-79
2021/09/18 07:20:12;;;;;;;;;;;14.90;99.90;;;;;;5075268;28;19999;-78
2021/09/18 07:22:38;;;;;;;;;;;15.00;99.90;;;;;;5075265;28;19972;-77
2021/09/18 07:25:07;;;;;;;;;;;15.00;99.90;;;;;;5075290;28;20007;-77
2021/09/18 07:27:34;;;;;;;;;;;15.10;99.90;;;;;;5075094;28;19979;-77
2021/09/18 07:30:01;;;;;;;;;;;15.10;99.90;;;;;;5075332;28;19971;-77
2021/09/18 07:32:30;;;;;;;;;;;15.20;99.90;;;;;;5074418;28;20150;-77
2021/09/18 07:34:57;;;;;;;;;;;15.30;99.90;;;;;;5075269;28;20392;-77
2021/09/18 07:37:24;;;;;;;;;;;15.30;99.90;;;;;;5074989;28;19963;-77
2021/09/18 07:39:51;;;;;;;;;;;15.30;99.90;;;;;;5074860;28;20361;-77
2021/09/18 07:42:19;;;;;;;;;;;15.40;99.90;;;;;;5075143;28;19971;-77
2021/09/18 07:44:46;;;;;;;;;;;15.40;99.90;;;;;;5075101;28;19996;-77
2021/09/18 07:47:13;;;;;;;;;;;15.50;99.90;;;;;;5074754;28;20022;-77
2021/09/18 07:49:41;;;;;;;;;;;15.60;99.90;;;;;;5074896;28;20408;-78
2021/09/18 07:52:08;;;;;;;;;;;15.60;99.90;;;;;;5074877;28;19925;-77
2021/09/18 07:54:35;;;;;;;;;;;15.70;99.90;;;;;;5075053;28;19979;-77
2021/09/18 07:57:02;;;;;;;;;;;15.70;99.90;;;;;;5074952;28;19925;-77
2021/09/18 07:59:31;;;;;;;;;;;15.80;99.90;;;;;;5074677;28;20245;-78
2021/09/18 08:01:58;;;;;;;;;;;15.80;99.90;;;;;;5074705;28;20019;-77
2021/09/18 08:04:24;;;;;;;;;;;15.90;99.90;;;;;;5075036;28;19972;-77
2021/09/18 08:06:51;;;;;;;;;;;15.90;99.90;;;;;;5074647;28;20011;-77
2021/09/18 08:09:18;;;;;;;;;;;16.00;99.90;;;;;;5074986;28;19982;-77
2021/09/18 08:11:45;;;;;;;;;;;16.10;99.90;;;;;;5074719;28;20016;-78
2021/09/18 08:14:12;;;;;;;;;;;16.20;99.90;;;;;;5074682;28;19982;-77
2021/09/18 08:16:40;;;;;;;;;;;16.30;99.90;;;;;;5074637;28;20416;-77
2021/09/18 08:19:07;;;;;;;;;;;16.50;99.90;;;;;;5074862;28;20015;-78
2021/09/18 08:21:34;;;;;;;;;;;16.70;99.90;;;;;;5074733;28;19968;-77
2021/09/18 08:24:01;;;;;;;;;;;16.80;99.90;;;;;;5074814;28;19964;-77
2021/09/18 08:26:30;;;;;;;;;;;17.00;99.90;;;;;;5077451;28;19993;-77
2021/09/18 08:28:57;;;;;;;;;;;17.10;99.90;;;;;;5078502;28;19929;-77
2021/09/18 08:31:24;;;;;;;;;;;17.30;99.90;;;;;;5078572;28;19929;-77
2021/09/18 08:33:52;;;;;;;;;;;17.40;99.90;;;;;;5078399;28;20368;-77
2021/09/18 08:36:19;;;;;;;;;;;17.40;99.90;;;;;;5078573;28;20015;-77
2021/09/18 08:38:46;;;;;;;;;;;17.50;99.90;;;;;;5078205;28;20031;-77
2021/09/18 08:41:13;;;;;;;;;;;17.60;99.90;;;;;;5078399;28;20437;-78
2021/09/18 08:43:40;;;;;;;;;;;17.60;99.90;;;;;;5078227;28;20348;-78
2021/09/18 08:46:07;;;;;;;;;;;17.60;99.90;;;;;;5078149;28;20036;-79
2021/09/18 08:48:34;;;;;;;;;;;17.70;99.90;;;;;;5078158;28;20420;-79
2021/09/18 08:51:05;;;;;;;;;;;17.70;99.90;;;;;;5077998;28;19975;-77
2021/09/18 08:53:33;;;;;;;;;;;17.70;99.90;;;;;;5076273;28;19968;-78
2021/09/18 08:56:01;;;;;;;;;;;17.80;99.90;;;;;;5078083;28;19979;-77
2021/09/18 08:58:29;;;;;;;;;;;17.80;99.90;;;;;;5078004;28;19983;-77
2021/09/18 09:00:57;;;;;;;;;;;17.80;99.90;;;;;;5077764;28;20340;-77
2021/09/18 09:03:29;;;;;;;;;;;17.80;99.90;;;;;;5077835;28;20018;-77
2021/09/18 09:06:03;;;;;;;;;;;17.80;99.90;;;;;;5077977;28;19976;-77
2021/09/18 09:08:31;;;;;;;;;;;17.80;99.90;;;;;;5077986;28;20023;-77
2021/09/18 09:10:58;;;;;;;;;;;17.90;99.90;;;;;;5077660;28;19967;-77
2021/09/18 09:13:26;;;;;;;;;;;17.90;99.90;;;;;;5077653;28;19976;-77
2021/09/18 09:16:06;;;;;;;;;;;17.90;99.90;;;;;;5077790;28;20019;-78
2021/09/18 09:18:38;;;;;;;;;;;18.00;99.90;;;;;;5077473;28;19924;-78
2021/09/18 09:21:10;;;;;;;;;;;18.00;99.90;;;;;;5077561;28;19936;-77
2021/09/18 09:23:37;;;;;;;;;;;18.00;99.90;;;;;;5077728;28;19928;-77
2021/09/18 09:26:04;;;;;;;;;;;18.10;99.90;;;;;;5077608;28;20381;-77
2021/09/18 09:28:32;;;;;;;;;;;18.10;99.90;;;;;;5077655;28;19964;-77
2021/09/18 09:31:09;;;;;;;;;;;18.20;99.90;;;;;;5077559;28;19924;-77
2021/09/18 09:33:36;;;;;;;;;;;18.20;99.90;;;;;;5077420;28;19968;-77
2021/09/18 09:36:15;;;;;;;;;;;18.30;99.90;;;;;;5077386;28;19924;-77
2021/09/18 09:38:50;;;;;;;;;;;18.40;99.90;;;;;;5076892;28;19935;-77
2021/09/18 09:41:26;;;;;;;;;;;18.40;99.90;;;;;;5077305;28;19986;-77
2021/09/18 09:43:54;;;;;;;;;;;18.40;99.90;;;;;;5077232;28;20019;-77
2021/09/18 09:46:20;;;;;;;;;;;18.40;99.90;;;;;;5076929;28;20344;-77
2021/09/18 09:48:47;;;;;;;;;;;18.50;99.90;;;;;;5077478;28;19972;-77
2021/09/18 09:51:16;;;;;;;;;;;18.50;99.90;;;;;;5077207;28;20027;-77
2021/09/18 09:53:42;;;;;;;;;;;18.50;99.90;;;;;;5077903;28;20342;-77
2021/09/18 09:56:21;;;;;;;;;;;18.50;99.90;;;;;;5077166;28;20015;-77
2021/09/18 09:58:51;;;;;;;;;;;18.60;99.90;;;;;;5076824;28;19979;-78
2021/09/18 10:01:18;;;;;;;;;;;18.70;99.90;;;;;;5076813;28;20011;-77
2021/09/18 10:03:46;;;;;;;;;;;18.70;99.90;;;;;;5077265;28;20351;-77
2021/09/18 10:06:12;;;;;;;;;;;18.70;99.90;;;;;;5076908;28;20028;-78
2021/09/18 10:08:43;;;;;;;;;;;18.80;99.90;;;;;;5076840;28;20621;-78
2021/09/18 10:11:10;;;;;;;;;;;18.70;99.90;;;;;;5076666;28;19938;-78
2021/09/18 10:13:37;;;;;;;;;;;18.70;99.90;;;;;;5076605;28;20404;-78
2021/09/18 10:16:04;;;;;;;;;;;18.60;99.90;;;;;;5076494;28;20027;-78
2021/09/18 10:18:32;;;;;;;;;;;18.60;99.90;;;;;;5076761;28;20029;-78
2021/09/18 10:23:45;;;;;;;;;;;18.50;99.90;;;;;;5076516;28;20322;-78
2021/09/18 10:26:12;;;;;;;;;;;18.40;99.90;;;;;;5076213;28;19970;-78
2021/09/18 10:28:41;;;;;;;;;;;18.30;99.90;;;;;;5076568;28;19968;-78
2021/09/18 10:31:12;;;;;;;;;;;18.30;99.90;;;;;;5076431;28;19978;-78
2021/09/18 10:33:40;;;;;;;;;;;18.20;99.90;;;;;;5075974;28;20007;-78
2021/09/18 10:36:10;;;;;;;;;;;18.20;99.90;;;;;;5075586;28;20049;-78
2021/09/18 10:38:39;;;;;;;;;;;18.30;99.90;;;;;;5075895;28;19941;-78
2021/09/18 10:41:20;;;;;;;;;;;18.30;99.90;;;;;;5076353;28;20252;-79
2021/09/18 10:43:53;;;;;;;;;;;18.30;99.90;;;;;;5076181;28;19932;-79
2021/09/18 10:46:37;;;;;;;;;;;18.30;99.90;;;;;;5075924;28;19924;-78
2021/09/18 10:49:05;;;;;;;;;;;18.40;99.90;;;;;;5074982;28;19924;-78
2021/09/18 10:51:35;;;;;;;;;;;18.40;99.90;;;;;;5076244;28;19924;-78
2021/09/18 10:54:04;;;;;;;;;;;18.40;99.90;;;;;;5075912;28;19932;-79
2021/09/18 10:56:49;;;;;;;;;;;18.50;99.90;;;;;;5076004;28;19924;-78
2021/09/18 10:59:18;;;;;;;;;;;18.50;99.90;;;;;;5070882;28;19935;-77
2021/09/18 11:01:46;;;;;;;;;;;18.50;99.90;;;;;;5075657;28;19925;-76
2021/09/18 11:04:29;;;;;;;;;;;18.50;99.90;;;;;;5075824;28;19925;-75
2021/09/18 11:06:56;;;;;;;;;;;18.60;99.90;;;;;;5075406;28;19925;-76
2021/09/18 11:09:40;;;;;;;;;;;18.70;99.90;;;;;;5090956;28;19924;-79
2021/09/18 11:12:14;;;;;;;;;;;18.70;99.90;;;;;;5075551;28;20265;-82
2021/09/18 11:14:44;;;;;;;;;;;18.80;99.90;;;;;;5078420;28;19935;-81
2021/09/18 11:17:28;;;;;;;;;;;18.80;99.90;;;;;;5077471;28;19934;-84
2021/09/18 11:19:59;;;;;;;;;;;18.70;99.90;;;;;;5075265;28;19936;-81
2021/09/18 11:22:35;;;;;;;;;;;18.80;99.90;;;;;;5075398;28;19924;-81
2021/09/18 11:25:17;;;;;;;;;;;18.80;99.90;;;;;;5075311;28;19982;-82
2021/09/18 11:27:46;;;;;;;;;;;18.90;99.90;;;;;;5076139;28;19943;-82
2021/09/18 11:30:15;;;;;;;;;;;18.80;99.90;;;;;;5075541;28;19931;-81
2021/09/18 11:32:42;;;;;;;;;;;18.90;99.90;;;;;;5075246;28;19924;-81
2021/09/18 11:35:13;;;;;;;;;;;18.90;99.90;;;;;;5075244;28;19925;-81
2021/09/18 11:37:41;;;;;;;;;;;18.90;99.90;;;;;;5075684;28;20023;-81
2021/09/18 11:40:12;;;;;;;;;;;19.00;99.90;;;;;;5075308;28;19928;-81
2021/09/18 11:42:41;;;;;;;;;;;19.10;99.90;;;;;;5074847;28;19935;-80
2021/09/18 11:45:12;;;;;;;;;;;19.20;99.90;;;;;;5075147;28;19924;-81
2021/09/18 11:47:42;;;;;;;;;;;19.30;99.90;;;;;;5075025;28;19932;-80
2021/09/18 11:50:22;;;;;;;;;;;19.40;99.90;;;;;;5075188;28;19925;-82
2021/09/18 11:52:53;;;;;;;;;;;19.50;99.90;;;;;;5075114;28;19925;-82
2021/09/18 11:55:26;;;;;;;;;;;19.60;99.90;;;;;;5075090;28;20360;-81
2021/09/18 11:58:01;;;;;;;;;;;19.70;99.90;;;;;;5075122;28;19933;-81
2021/09/18 12:00:30;;;;;;;;;;;19.70;99.90;;;;;;5075955;28;19924;-81
2021/09/18 12:03:03;;;;;;;;;;;19.70;99.90;;;;;;5078909;28;19924;-79
2021/09/18 12:05:31;;;;;;;;;;;19.80;99.90;;;;;;5079189;28;19924;-80
2021/09/18 12:07:59;;;;;;;;;;;19.70;99.90;;;;;;5078685;28;20263;-78
2021/09/18 12:10:28;;;;;;;;;;;19.80;99.90;;;;;;5078863;28;19934;-80
2021/09/18 12:12:58;;;;;;;;;;;19.70;99.90;;;;;;5079033;28;19924;-79
2021/09/18 12:15:29;;;;;;;;;;;19.60;99.90;;;;;;5078967;28;20337;-78
2021/09/18 12:17:59;;;;;;;;;;;19.60;99.90;;;;;;5078982;28;19948;-78
2021/09/18 12:20:41;;;;;;;;;;;19.60;99.90;;;;;;5078803;28;19924;-77
2021/09/18 12:23:10;;;;;;;;;;;19.60;99.90;;;;;;5078817;28;20023;-79
2021/09/18 12:25:37;;;;;;;;;;;19.60;99.90;;;;;;5078666;28;19934;-79
2021/09/18 12:28:05;;;;;;;;;;;19.60;99.90;;;;;;5078531;28;19924;-76
2021/09/18 12:30:43;;;;;;;;;;;19.60;99.90;;;;;;5078698;28;19935;-77
2021/09/18 12:33:11;;;;;;;;;;;19.70;99.90;;;;;;5078158;28;19938;-78
2021/09/18 12:35:45;;;;;;;;;;;19.80;99.90;;;;;;5078655;28;19924;-78
2021/09/18 12:38:13;;;;;;;;;;;19.80;99.90;;;;;;5078856;28;19942;-77
2021/09/18 12:40:42;;;;;;;;;;;19.90;99.90;;;;;;5078565;28;19939;-78
2021/09/18 12:43:11;;;;;;;;;;;20.00;99.90;;;;;;5078296;28;19928;-77
2021/09/18 12:45:39;;;;;;;;;;;20.00;99.90;;;;;;5078201;28;19936;-77
2021/09/18 12:48:12;;;;;;;;;;;20.10;99.90;;;;;;5078032;28;19936;-77
2021/09/18 12:50:55;;;;;;;;;;;20.00;99.90;;;;;;5077952;28;19934;-77
2021/09/18 12:53:24;;;;;;;;;;;19.90;99.90;;;;;;5078155;28;20284;-77
2021/09/18 12:56:09;;;;;;;;;;;19.90;99.90;;;;;;5077975;28;19935;-77
2021/09/18 12:58:37;;;;;;;;;;;20.00;99.90;;;;;;5077856;28;19925;-77
2021/09/18 13:01:06;;;;;;;;;;;20.00;99.90;;;;;;5077463;28;19925;-77
2021/09/18 13:03:33;;;;;;;;;;;20.00;99.90;;;;;;5077817;28;19924;-78
2021/09/18 13:06:06;;;;;;;;;;;20.00;99.90;;;;;;5077950;28;19958;-77
2021/09/18 13:08:48;;;;;;;;;;;20.00;99.90;;;;;;5077679;28;20341;-77
2021/09/18 13:11:17;;;;;;;;;;;20.00;99.90;;;;;;5077125;28;19933;-77
2021/09/18 13:13:48;;;;;;;;;;;20.00;99.90;;;;;;5077341;28;19925;-77
2021/09/18 13:16:16;;;;;;;;;;;20.00;99.90;;;;;;5077583;28;19924;-77
2021/09/18 13:18:43;;;;;;;;;;;20.00;99.90;;;;;;5077596;28;19925;-78
2021/09/18 13:21:13;;;;;;;;;;;20.10;99.90;;;;;;5077570;28;19932;-78
2021/09/18 13:23:42;;;;;;;;;;;20.10;99.90;;;;;;5077525;28;19932;-78
2021/09/18 13:26:09;;;;;;;;;;;20.10;99.90;;;;;;5077460;28;20054;-78
2021/09/18 13:28:46;;;;;;;;;;;20.10;99.90;;;;;;5077548;28;19924;-78
2021/09/18 13:31:14;;;;;;;;;;;20.10;99.90;;;;;;5077535;28;19989;-77
2021/09/18 13:33:42;;;;;;;;;;;20.10;99.90;;;;;;5077281;28;19924;-77
2021/09/18 13:36:11;;;;;;;;;;;20.10;99.90;;;;;;5076833;28;19928;-78
2021/09/18 13:38:42;;;;;;;;;;;20.10;99.90;;;;;;5067024;28;20367;-78
2021/09/18 13:41:10;;;;;;;;;;;20.10;99.90;;;;;;5057195;28;19931;-78
2021/09/18 13:43:38;;;;;;;;;;;20.00;99.90;;;;;;5057245;28;19936;-78
2021/09/18 13:46:08;;;;;;;;;;;20.00;99.90;;;;;;5057087;28;19931;-78
2021/09/18 13:48:36;;;;;;;;;;;20.00;99.90;;;;;;5056971;28;20063;-78
2021/09/18 13:51:04;;;;;;;;;;;20.00;99.90;;;;;;5056961;28;20257;-78
2021/09/18 13:53:32;;;;;;;;;;;20.00;99.90;;;;;;5057202;28;20030;-78
2021/09/18 13:56:07;;;;;;;;;;;20.10;99.90;;;;;;5057160;28;19925;-78
2021/09/18 13:58:35;;;;;;;;;;;20.10;99.90;;;;;;5057105;28;19977;-78
2021/09/18 14:01:04;;;;;;;;;;;20.20;99.90;;;;;;5056590;28;19925;-78
2021/09/18 14:03:33;;;;;;;;;;;20.30;99.90;;;;;;5056697;28;20379;-78
2021/09/18 14:06:01;;;;;;;;;;;20.30;99.90;;;;;;5057220;28;19932;-78
2021/09/18 14:08:30;;;;;;;;;;;20.30;99.90;;;;;;5073420;28;19924;-78
2021/09/18 14:10:58;;;;;;;;;;;20.30;99.90;;;;;;5071915;28;19928;-78
2021/09/18 14:13:28;;;;;;;;;;;20.20;99.90;;;;;;5073712;28;19924;-78
2021/09/18 14:15:56;;;;;;;;;;;20.20;99.90;;;;;;5076460;28;19925;-86
2021/09/18 14:18:24;;;;;;;;;;;20.10;99.90;;;;;;5076626;28;20028;-78
2021/09/18 14:20:54;;;;;;;;;;;20.00;99.90;;;;;;5076472;28;19925;-78
2021/09/18 14:23:22;;;;;;;;;;;19.90;99.90;;;;;;5073754;28;19983;-78
2021/09/18 14:25:50;;;;;;;;;;;19.90;99.90;;;;;;5071020;28;19925;-78
2021/09/18 14:28:19;;;;;;;;;;;19.80;99.90;;;;;;5075105;28;20348;-77
2021/09/18 14:30:48;;;;;;;;;;;19.80;99.90;;;;;;5076208;28;20366;-77